Time;durP1;ratioP1;P1;durP2;ratioP2;P2;SDS_P1;SDS_P2;PMS_P1;PMS_P2;Temp;Humidity;BMP_temperature;BMP_pressure;BME280_temperature;BME280_humidity;BME280_pressure;Samples;Min_cycle;Max_cycle;Signal;HPM_P1;HPM_P2
2024/03/29 01:43:57;;;;;;;3.13;2.80;;;;;;;;;;5129306;27;20211;-71
2024/03/29 01:46:26;;;;;;;3.10;1.63;;;;;;;;;;5096845;28;20244;-71
2024/03/29 01:48:53;;;;;;;2.85;2.10;;;;;;;;;;5097396;28;20220;-71
2024/03/29 01:51:21;;;;;;;3.50;2.20;;;;;;;;;;5105781;28;20196;-71
2024/03/29 01:53:49;;;;;;;2.70;1.85;;;;;;;;;;5102558;28;20208;-71
2024/03/29 01:56:17;;;;;;;1.60;1.50;;;;;;;;;;5099586;28;20729;-71
2024/03/29 01:58:46;;;;;;;1.50;1.40;;;;;;;;;;5098284;28;20236;-71
2024/03/29 02:01:13;;;;;;;1.55;1.45;;;;;;;;;;5096329;28;20299;-71
2024/03/29 02:03:42;;;;;;;2.00;1.40;;;;;;;;;;5095865;28;20201;-71
2024/03/29 02:06:10;;;;;;;2.03;1.50;;;;;;;;;;5090845;28;20291;-71
2024/03/29 02:08:37;;;;;;;2.15;1.95;;;;;;;;;;5095409;28;20597;-71
2024/03/29 02:11:05;;;;;;;1.83;1.60;;;;;;;;;;5094720;28;20307;-71
2024/03/29 02:13:32;;;;;;;1.50;1.40;;;;;;;;;;5094752;28;20204;-71
2024/03/29 02:15:59;;;;;;;4.97;1.65;;;;;;;;;;5095552;28;20225;-71
2024/03/29 02:18:27;;;;;;;2.75;2.45;;;;;;;;;;5094143;28;20196;-71
2024/03/29 02:20:55;;;;;;;2.17;1.88;;;;;;;;;;5090339;28;20231;-71
2024/03/29 02:23:27;;;;;;;1.40;1.40;;;;;;;;;;5093445;28;20279;-71
2024/03/29 02:25:56;;;;;;;2.95;1.20;;;;;;;;;;5093868;28;20764;-71
2024/03/29 02:28:24;;;;;;;1.90;1.75;;;;;;;;;;5094075;28;20760;-71
2024/03/29 02:30:51;;;;;;;1.40;1.35;;;;;;;;;;5089116;28;20272;-72
2024/03/29 02:33:18;;;;;;;1.30;0.90;;;;;;;;;;5094033;28;20212;-71
2024/03/29 02:35:45;;;;;;;1.40;1.20;;;;;;;;;;5089359;28;20613;-71
2024/03/29 02:38:12;;;;;;;2.30;1.10;;;;;;;;;;5093750;28;20264;-71
2024/03/29 02:40:39;;;;;;;1.83;1.10;;;;;;;;;;5096092;28;20295;-71
2024/03/29 02:43:08;;;;;;;1.05;0.95;;;;;;;;;;5096706;28;20679;-71
2024/03/29 02:45:36;;;;;;;1.52;1.10;;;;;;;;;;5096301;28;20639;-71
2024/03/29 02:48:02;;;;;;;1.65;1.55;;;;;;;;;;5096254;28;20253;-71
2024/03/29 02:50:29;;;;;;;1.67;0.82;;;;;;;;;;5096736;28;20234;-71
2024/03/29 02:52:55;;;;;;;0.85;0.85;;;;;;;;;;5095902;28;20656;-71
2024/03/29 02:55:22;;;;;;;1.10;1.00;;;;;;;;;;5096517;28;20600;-71
2024/03/29 02:57:48;;;;;;;1.20;0.80;;;;;;;;;;5096319;28;20239;-71
2024/03/29 03:00:17;;;;;;;2.60;1.48;;;;;;;;;;5097123;28;20196;-71
2024/03/29 03:02:43;;;;;;;1.70;1.42;;;;;;;;;;5096550;28;20296;-71
2024/03/29 03:05:11;;;;;;;1.65;1.08;;;;;;;;;;5096502;28;20247;-71
2024/03/29 03:13:19;;;;;;;3.90;1.20;;;;;;;;;;5033390;28;20234;-71
2024/03/29 03:15:47;;;;;;;2.58;1.20;;;;;;;;;;5079744;28;20288;-71
2024/03/29 03:18:14;;;;;;;1.17;0.85;;;;;;;;;;5095804;28;20292;-71
2024/03/29 03:20:41;;;;;;;1.10;1.10;;;;;;;;;;5095240;28;20202;-71
2024/03/29 03:23:08;;;;;;;1.77;1.45;;;;;;;;;;5095851;28;20205;-71
2024/03/29 03:25:35;;;;;;;1.33;1.33;;;;;;;;;;5095527;28;20270;-71
2024/03/29 03:28:02;;;;;;;2.50;1.10;;;;;;;;;;5095707;28;20335;-71
2024/03/29 03:30:28;;;;;;;2.13;1.20;;;;;;;;;;5095143;28;20231;-71
2024/03/29 03:32:56;;;;;;;1.55;1.33;;;;;;;;;;5095594;28;20205;-71
2024/03/29 03:35:22;;;;;;;2.55;0.85;;;;;;;;;;5096020;28;20324;-71
2024/03/29 03:37:50;;;;;;;1.02;1.00;;;;;;;;;;5095561;28;20207;-71
2024/03/29 03:40:16;;;;;;;0.93;0.93;;;;;;;;;;5095866;28;20680;-71
2024/03/29 03:42:43;;;;;;;1.75;0.90;;;;;;;;;;5095651;28;20211;-71
2024/03/29 03:45:09;;;;;;;0.82;0.82;;;;;;;;;;5095554;28;20289;-71
2024/03/29 03:47:36;;;;;;;2.85;2.50;;;;;;;;;;5095181;28;20200;-71
2024/03/29 03:50:04;;;;;;;0.70;0.70;;;;;;;;;;5094952;28;20317;-71
2024/03/29 03:52:31;;;;;;;1.00;1.00;;;;;;;;;;5095321;28;20219;-71
2024/03/29 03:54:57;;;;;;;1.33;1.30;;;;;;;;;;5096156;28;20311;-71
2024/03/29 03:57:24;;;;;;;1.50;1.40;;;;;;;;;;5095587;28;20266;-71
2024/03/29 03:59:51;;;;;;;1.95;1.83;;;;;;;;;;5095575;28;20218;-71
2024/03/29 04:02:18;;;;;;;1.42;1.33;;;;;;;;;;5094513;28;20225;-71
2024/03/29 04:04:47;;;;;;;1.58;0.90;;;;;;;;;;5094160;28;20313;-71
2024/03/29 04:07:15;;;;;;;1.05;0.95;;;;;;;;;;5095445;28;20200;-71
2024/03/29 04:09:42;;;;;;;1.30;1.20;;;;;;;;;;5094931;28;20229;-71
2024/03/29 04:12:09;;;;;;;1.60;1.50;;;;;;;;;;5095377;28;20584;-71
2024/03/29 04:14:35;;;;;;;1.90;1.80;;;;;;;;;;5095832;28;20662;-71
2024/03/29 04:17:02;;;;;;;1.70;1.27;;;;;;;;;;5095458;28;20206;-71
2024/03/29 04:19:28;;;;;;;1.10;1.00;;;;;;;;;;5095127;28;20292;-71
2024/03/29 04:21:55;;;;;;;1.20;1.10;;;;;;;;;;5093880;28;20198;-71
2024/03/29 04:24:23;;;;;;;1.42;1.33;;;;;;;;;;5095338;28;20323;-71
2024/03/29 04:26:50;;;;;;;1.90;1.27;;;;;;;;;;5095400;28;20259;-71
2024/03/29 04:29:17;;;;;;;0.95;0.95;;;;;;;;;;5095301;28;20611;-71
2024/03/29 04:31:46;;;;;;;0.70;0.70;;;;;;;;;;5094679;28;20206;-71
2024/03/29 04:34:12;;;;;;;0.90;0.90;;;;;;;;;;5095073;28;20317;-71
2024/03/29 04:36:39;;;;;;;2.15;0.90;;;;;;;;;;5095154;28;20208;-71
2024/03/29 04:39:06;;;;;;;1.13;1.13;;;;;;;;;;5094819;28;20206;-71
2024/03/29 04:41:35;;;;;;;1.90;1.20;;;;;;;;;;5094195;28;20225;-71
2024/03/29 04:44:02;;;;;;;1.38;1.15;;;;;;;;;;5094897;28;20228;-71
2024/03/29 04:46:31;;;;;;;2.40;1.05;;;;;;;;;;5094377;28;20214;-71
2024/03/29 04:48:58;;;;;;;0.77;0.77;;;;;;;;;;5094861;28;20320;-71
2024/03/29 04:51:26;;;;;;;1.00;1.00;;;;;;;;;;5093974;28;20532;-71
2024/03/29 04:53:53;;;;;;;1.05;0.95;;;;;;;;;;5094506;28;20207;-71
2024/03/29 04:56:20;;;;;;;2.03;0.90;;;;;;;;;;5093645;28;20210;-71
2024/03/29 04:58:48;;;;;;;2.03;0.98;;;;;;;;;;5096860;28;20271;-71
2024/03/29 05:01:16;;;;;;;1.60;1.50;;;;;;;;;;5098253;28;20678;-71
2024/03/29 05:03:43;;;;;;;1.13;1.13;;;;;;;;;;5097828;28;20305;-71
2024/03/29 05:06:10;;;;;;;1.63;1.08;;;;;;;;;;5097389;28;20215;-71
2024/03/29 05:08:37;;;;;;;1.30;1.20;;;;;;;;;;5096958;28;20653;-71
2024/03/29 05:11:05;;;;;;;1.40;1.30;;;;;;;;;;5094967;28;20488;-71
2024/03/29 05:13:32;;;;;;;2.30;1.23;;;;;;;;;;5094951;28;21008;-71
2024/03/29 05:16:01;;;;;;;2.72;1.35;;;;;;;;;;5094852;28;20249;-71
2024/03/29 05:18:28;;;;;;;3.15;1.08;;;;;;;;;;5096020;28;20209;-71
2024/03/29 05:20:55;;;;;;;1.70;1.60;;;;;;;;;;5098031;28;20622;-71
2024/03/29 05:23:22;;;;;;;1.17;1.10;;;;;;;;;;5097638;28;20280;-71
2024/03/29 05:25:49;;;;;;;2.17;1.40;;;;;;;;;;5098213;28;20540;-71
2024/03/29 05:28:16;;;;;;;2.40;1.10;;;;;;;;;;5098429;28;20470;-71
2024/03/29 05:30:44;;;;;;;1.10;1.00;;;;;;;;;;5097259;28;20491;-71
2024/03/29 05:33:13;;;;;;;1.20;1.10;;;;;;;;;;5095370;28;20872;-71
2024/03/29 05:35:40;;;;;;;1.40;1.30;;;;;;;;;;5095041;28;20869;-71
2024/03/29 05:38:07;;;;;;;1.53;1.43;;;;;;;;;;5094636;28;20917;-71
2024/03/29 05:40:34;;;;;;;1.75;1.65;;;;;;;;;;5094693;28;20521;-71
2024/03/29 05:43:01;;;;;;;1.57;1.10;;;;;;;;;;5094447;28;20210;-71
2024/03/29 05:45:30;;;;;;;1.20;1.10;;;;;;;;;;5095008;28;20464;-70
2024/03/29 05:47:58;;;;;;;1.27;1.17;;;;;;;;;;5094097;28;20448;-71
2024/03/29 05:50:27;;;;;;;2.47;1.70;;;;;;;;;;5093968;28;20783;-71
2024/03/29 05:52:54;;;;;;;2.08;1.30;;;;;;;;;;5094191;28;20477;-71
2024/03/29 05:55:21;;;;;;;1.30;1.20;;;;;;;;;;5093695;28;20230;-71
2024/03/29 05:57:48;;;;;;;1.60;0.97;;;;;;;;;;5094266;28;20512;-71
2024/03/29 06:00:16;;;;;;;1.40;1.40;;;;;;;;;;5094247;28;20527;-71
2024/03/29 06:02:45;;;;;;;2.65;1.40;;;;;;;;;;5093695;28;20204;-70
2024/03/29 06:05:12;;;;;;;3.13;1.67;;;;;;;;;;5093649;28;20226;-71
2024/03/29 06:07:40;;;;;;;4.43;1.83;;;;;;;;;;5093946;28;20620;-70
2024/03/29 06:10:10;;;;;;;1.25;1.00;;;;;;;;;;5092905;28;20227;-70
2024/03/29 06:12:38;;;;;;;1.80;1.70;;;;;;;;;;5093548;28;20699;-70
2024/03/29 06:17:50;;;;;;;1.67;1.27;;;;;;;;;;5093593;28;20198;-70
2024/03/29 06:20:17;;;;;;;1.53;1.47;;;;;;;;;;5093543;28;20445;-70
2024/03/29 06:22:46;;;;;;;1.03;1.00;;;;;;;;;;5093046;28;20449;-70
2024/03/29 06:25:13;;;;;;;1.45;1.35;;;;;;;;;;5092977;28;20567;-70
2024/03/29 06:27:40;;;;;;;1.70;1.60;;;;;;;;;;5093223;28;20210;-70
2024/03/29 06:30:08;;;;;;;1.77;1.67;;;;;;;;;;5092870;28;20490;-70
2024/03/29 06:32:36;;;;;;;1.30;1.13;;;;;;;;;;5093101;28;20453;-70
2024/03/29 06:35:03;;;;;;;1.73;1.40;;;;;;;;;;5092976;28;20470;-70
2024/03/29 06:37:30;;;;;;;2.90;1.47;;;;;;;;;;5092944;28;20966;-70
2024/03/29 06:39:59;;;;;;;2.10;1.63;;;;;;;;;;5092629;28;20524;-70
2024/03/29 06:42:26;;;;;;;1.57;1.47;;;;;;;;;;5092743;28;20449;-70
2024/03/29 06:44:54;;;;;;;1.80;1.70;;;;;;;;;;5092674;28;20593;-70
2024/03/29 06:47:22;;;;;;;1.57;1.47;;;;;;;;;;5092760;28;20443;-70
2024/03/29 06:49:49;;;;;;;2.00;1.70;;;;;;;;;;5092804;28;20489;-70
2024/03/29 06:52:16;;;;;;;1.40;1.30;;;;;;;;;;5092495;28;20798;-70
2024/03/29 06:54:43;;;;;;;2.00;1.50;;;;;;;;;;5092582;28;20465;-70
2024/03/29 06:57:15;;;;;;;1.00;1.00;;;;;;;;;;5092622;28;20507;-70
2024/03/29 06:59:42;;;;;;;1.33;1.23;;;;;;;;;;5092756;28;20503;-70
2024/03/29 07:02:10;;;;;;;1.93;1.83;;;;;;;;;;5092189;28;20969;-70
2024/03/29 07:04:37;;;;;;;1.50;1.50;;;;;;;;;;5092452;28;20555;-69
2024/03/29 07:07:05;;;;;;;1.57;1.47;;;;;;;;;;5092408;28;20452;-70
2024/03/29 07:09:32;;;;;;;1.13;1.13;;;;;;;;;;5092191;28;20455;-70
2024/03/29 07:11:59;;;;;;;1.33;1.33;;;;;;;;;;5092307;28;20449;-70
2024/03/29 07:14:29;;;;;;;1.30;1.20;;;;;;;;;;5092404;28;20470;-70
2024/03/29 07:16:57;;;;;;;1.20;1.20;;;;;;;;;;5092337;28;20449;-70
2024/03/29 07:19:24;;;;;;;1.57;1.47;;;;;;;;;;5092200;28;20483;-70
2024/03/29 07:21:52;;;;;;;1.43;1.30;;;;;;;;;;5092040;28;20527;-70
2024/03/29 07:24:20;;;;;;;1.50;1.40;;;;;;;;;;5091910;28;20999;-70
2024/03/29 07:26:47;;;;;;;1.10;1.10;;;;;;;;;;5092103;28;20544;-70
2024/03/29 07:29:14;;;;;;;1.10;1.00;;;;;;;;;;5092267;28;20450;-70
2024/03/29 07:31:43;;;;;;;0.83;0.83;;;;;;;;;;5091852;28;20520;-70
2024/03/29 07:34:10;;;;;;;1.17;1.07;;;;;;;;;;5092087;28;20469;-70
2024/03/29 07:36:39;;;;;;;1.37;1.27;;;;;;;;;;5091973;28;20511;-70
2024/03/29 07:39:06;;;;;;;3.73;1.20;;;;;;;;;;5092221;28;20477;-70
2024/03/29 07:41:33;;;;;;;4.83;1.77;;;;;;;;;;5091689;28;20450;-70
2024/03/29 07:44:03;;;;;;;1.57;1.07;;;;;;;;;;5092008;28;20887;-70
2024/03/29 07:46:30;;;;;;;1.10;1.10;;;;;;;;;;5091805;28;21191;-70
2024/03/29 07:48:59;;;;;;;1.87;1.77;;;;;;;;;;5091826;28;20540;-70
2024/03/29 07:51:26;;;;;;;2.37;1.30;;;;;;;;;;5091179;28;20485;-70
2024/03/29 07:53:53;;;;;;;1.30;1.20;;;;;;;;;;5091726;28;20456;-70
2024/03/29 07:56:21;;;;;;;1.80;1.40;;;;;;;;;;5091528;28;20954;-70
2024/03/29 07:58:48;;;;;;;3.53;1.40;;;;;;;;;;5091775;28;20827;-70
2024/03/29 08:01:19;;;;;;;1.70;1.60;;;;;;;;;;5091312;28;20545;-70
2024/03/29 08:03:46;;;;;;;1.70;1.60;;;;;;;;;;5091324;28;20457;-70
2024/03/29 08:06:17;;;;;;;0.90;0.90;;;;;;;;;;5091643;28;20453;-70
2024/03/29 08:08:45;;;;;;;2.80;1.13;;;;;;;;;;5091399;28;20952;-70
2024/03/29 08:11:12;;;;;;;1.00;1.00;;;;;;;;;;5091147;28;20584;-70
2024/03/29 08:13:40;;;;;;;1.37;1.13;;;;;;;;;;5091415;28;20449;-70
2024/03/29 08:16:07;;;;;;;1.30;1.20;;;;;;;;;;5091269;28;20481;-70
2024/03/29 08:18:34;;;;;;;1.30;1.27;;;;;;;;;;5091205;28;20481;-70
2024/03/29 08:21:01;;;;;;;1.60;1.50;;;;;;;;;;5091190;28;20448;-70
2024/03/29 08:23:30;;;;;;;2.40;2.20;;;;;;;;;;5091292;28;20486;-70
2024/03/29 08:25:58;;;;;;;1.87;1.27;;;;;;;;;;5086981;28;20474;-70
2024/03/29 08:28:25;;;;;;;1.80;1.70;;;;;;;;;;5090829;28;20437;-70
2024/03/29 08:30:59;;;;;;;1.60;1.50;;;;;;;;;;5086202;28;20492;-70
2024/03/29 08:33:26;;;;;;;1.33;1.33;;;;;;;;;;5090797;28;20472;-70
2024/03/29 08:35:54;;;;;;;1.27;1.17;;;;;;;;;;5091090;28;20464;-71
2024/03/29 08:38:21;;;;;;;1.63;1.63;;;;;;;;;;5091221;28;20460;-70
2024/03/29 08:40:49;;;;;;;2.17;1.23;;;;;;;;;;5090929;28;20939;-70
2024/03/29 08:43:17;;;;;;;1.00;1.00;;;;;;;;;;5090706;28;20960;-70
2024/03/29 08:45:45;;;;;;;1.20;1.10;;;;;;;;;;5090592;28;20544;-70
2024/03/29 08:48:12;;;;;;;1.60;1.50;;;;;;;;;;5090782;28;20529;-70
2024/03/29 08:50:39;;;;;;;1.93;1.53;;;;;;;;;;5090623;28;20588;-71
2024/03/29 08:53:07;;;;;;;1.83;1.43;;;;;;;;;;5090638;28;20492;-71
2024/03/29 08:55:36;;;;;;;3.60;1.17;;;;;;;;;;5090580;28;20469;-70
2024/03/29 08:58:05;;;;;;;2.17;1.57;;;;;;;;;;5090589;28;21125;-70
2024/03/29 09:00:32;;;;;;;1.23;1.13;;;;;;;;;;5090877;28;20529;-70
2024/03/29 09:03:01;;;;;;;1.07;1.03;;;;;;;;;;5090458;28;20537;-71
2024/03/29 09:05:29;;;;;;;2.40;1.43;;;;;;;;;;5090544;28;20593;-70
2024/03/29 09:07:56;;;;;;;6.03;1.37;;;;;;;;;;5090549;28;20515;-71
2024/03/29 09:10:24;;;;;;;1.20;1.03;;;;;;;;;;5090258;28;20518;-70
2024/03/29 09:12:51;;;;;;;1.20;1.10;;;;;;;;;;5090170;28;20444;-70
2024/03/29 09:15:19;;;;;;;4.07;1.70;;;;;;;;;;5090437;28;21046;-71
2024/03/29 09:17:47;;;;;;;1.20;1.10;;;;;;;;;;5090944;28;20450;-70
2024/03/29 09:20:14;;;;;;;2.00;1.80;;;;;;;;;;5091618;28;20902;-70
2024/03/29 09:22:41;;;;;;;2.07;1.83;;;;;;;;;;5089917;28;20453;-69
2024/03/29 09:25:13;;;;;;;2.27;2.07;;;;;;;;;;5089874;28;20478;-68
2024/03/29 09:27:42;;;;;;;2.40;1.70;;;;;;;;;;5088305;28;20547;-68
2024/03/29 09:30:10;;;;;;;2.07;1.50;;;;;;;;;;5089178;28;20537;-68
2024/03/29 09:32:39;;;;;;;1.70;1.60;;;;;;;;;;5089658;28;20442;-68
2024/03/29 09:35:06;;;;;;;9.27;2.27;;;;;;;;;;5089267;28;20468;-68
2024/03/29 09:37:35;;;;;;;1.63;1.53;;;;;;;;;;5089935;28;20453;-68
2024/03/29 09:40:03;;;;;;;2.67;1.40;;;;;;;;;;5089266;28;20453;-69
2024/03/29 09:42:33;;;;;;;8.70;2.70;;;;;;;;;;5089189;28;20438;-68
2024/03/29 09:45:00;;;;;;;2.50;2.30;;;;;;;;;;5090202;28;20468;-68
2024/03/29 09:47:28;;;;;;;1.60;1.50;;;;;;;;;;5089860;28;20457;-67
2024/03/29 09:49:58;;;;;;;1.87;1.77;;;;;;;;;;5086040;28;20477;-67
2024/03/29 09:52:25;;;;;;;2.03;1.57;;;;;;;;;;5079542;28;20491;-67
2024/03/29 09:54:53;;;;;;;2.53;2.33;;;;;;;;;;5093078;28;20469;-67
2024/03/29 09:57:20;;;;;;;2.07;1.30;;;;;;;;;;5087642;28;21083;-67
2024/03/29 09:59:47;;;;;;;2.03;1.80;;;;;;;;;;5090512;28;20468;-67
2024/03/29 10:02:16;;;;;;;1.50;1.40;;;;;;;;;;5092122;28;20536;-67
2024/03/29 10:04:44;;;;;;;1.90;1.07;;;;;;;;;;5092445;28;20465;-67
2024/03/29 10:07:14;;;;;;;1.30;1.17;;;;;;;;;;5092470;28;20529;-66
2024/03/29 10:09:42;;;;;;;1.30;1.20;;;;;;;;;;5084499;28;20486;-66
2024/03/29 10:12:09;;;;;;;1.50;1.20;;;;;;;;;;5091880;28;20492;-66
2024/03/29 10:14:48;;;;;;;1.43;1.33;;;;;;;;;;5086149;28;21008;-66
2024/03/29 10:17:16;;;;;;;1.83;1.60;;;;;;;;;;5089682;28;20453;-66
2024/03/29 10:19:43;;;;;;;2.10;1.83;;;;;;;;;;5090750;28;20449;-66
2024/03/29 10:22:10;;;;;;;6.23;4.00;;;;;;;;;;5092112;28;20456;-66
2024/03/29 10:24:39;;;;;;;5.70;3.37;;;;;;;;;;5092642;28;20473;-66
2024/03/29 10:27:06;;;;;;;1.83;1.67;;;;;;;;;;5092607;28;20974;-67
2024/03/29 10:29:34;;;;;;;1.63;1.53;;;;;;;;;;5092217;28;20460;-66
2024/03/29 10:32:02;;;;;;;2.30;2.10;;;;;;;;;;5092227;28;20490;-66
2024/03/29 10:34:33;;;;;;;1.73;1.63;;;;;;;;;;5092391;28;20473;-66
2024/03/29 10:37:01;;;;;;;3.40;2.10;;;;;;;;;;5091663;28;20448;-66
2024/03/29 10:39:30;;;;;;;2.10;1.90;;;;;;;;;;5092286;28;20524;-66
2024/03/29 10:42:00;;;;;;;1.97;1.77;;;;;;;;;;5091886;28;20449;-66
2024/03/29 10:44:28;;;;;;;3.50;2.10;;;;;;;;;;5092747;28;20545;-66
2024/03/29 10:46:56;;;;;;;1.90;1.50;;;;;;;;;;5092387;28;20449;-66
2024/03/29 10:49:24;;;;;;;2.00;1.80;;;;;;;;;;5092187;28;20525;-66
2024/03/29 10:51:52;;;;;;;2.00;1.53;;;;;;;;;;5091679;28;20576;-66
2024/03/29 10:54:19;;;;;;;2.70;2.60;;;;;;;;;;5092086;28;20481;-66
2024/03/29 10:56:49;;;;;;;3.27;1.57;;;;;;;;;;5091604;28;20457;-66
2024/03/29 10:59:23;;;;;;;2.07;1.97;;;;;;;;;;5082802;28;20532;-66
2024/03/29 11:01:53;;;;;;;1.80;1.60;;;;;;;;;;5087996;28;20456;-65
2024/03/29 11:04:23;;;;;;;2.43;1.40;;;;;;;;;;5082457;28;20458;-66
2024/03/29 11:06:53;;;;;;;1.63;1.53;;;;;;;;;;5085410;28;21841;-66
2024/03/29 11:09:22;;;;;;;2.00;1.63;;;;;;;;;;5081262;28;20442;-66
2024/03/29 11:11:51;;;;;;;2.03;1.93;;;;;;;;;;5091101;28;20573;-66
2024/03/29 11:14:22;;;;;;;4.63;1.80;;;;;;;;;;5091018;28;20558;-66
2024/03/29 11:16:51;;;;;;;1.10;1.00;;;;;;;;;;5091147;28;20533;-66
2024/03/29 11:19:18;;;;;;;3.30;2.60;;;;;;;;;;5091478;28;20474;-66
2024/03/29 11:21:48;;;;;;;3.07;2.83;;;;;;;;;;5091270;28;20441;-66
2024/03/29 11:24:19;;;;;;;2.50;2.30;;;;;;;;;;5090448;28;20474;-66
2024/03/29 11:26:45;;;;;;;1.70;1.60;;;;;;;;;;5090814;28;20450;-66
2024/03/29 11:29:21;;;;;;;2.33;2.13;;;;;;;;;;5090441;28;20453;-66
2024/03/29 11:31:51;;;;;;;1.83;1.60;;;;;;;;;;5090171;28;20486;-67
2024/03/29 11:34:20;;;;;;;1.30;1.20;;;;;;;;;;5090439;28;21183;-66
2024/03/29 11:36:47;;;;;;;4.40;2.43;;;;;;;;;;5090589;28;20454;-66
2024/03/29 11:39:21;;;;;;;2.53;1.30;;;;;;;;;;5088664;28;20906;-66
2024/03/29 11:41:49;;;;;;;1.50;1.40;;;;;;;;;;5090014;28;20885;-66
2024/03/29 11:44:16;;;;;;;1.40;1.30;;;;;;;;;;5090480;28;20509;-67
2024/03/29 11:46:45;;;;;;;1.50;1.40;;;;;;;;;;5090274;28;20442;-66
2024/03/29 11:49:12;;;;;;;2.13;2.00;;;;;;;;;;5090690;28;20443;-66
2024/03/29 11:51:39;;;;;;;1.30;1.20;;;;;;;;;;5089842;28;20941;-66
2024/03/29 11:54:06;;;;;;;1.20;1.10;;;;;;;;;;5090151;28;20461;-66
2024/03/29 11:56:34;;;;;;;2.00;1.80;;;;;;;;;;5090341;28;20454;-66
2024/03/29 11:59:01;;;;;;;1.20;1.17;;;;;;;;;;5090556;28;20442;-66
2024/03/29 12:01:29;;;;;;;1.83;1.73;;;;;;;;;;5089647;28;20951;-67
2024/03/29 12:03:57;;;;;;;3.13;1.77;;;;;;;;;;5089879;28;20443;-67
2024/03/29 12:06:24;;;;;;;1.80;1.70;;;;;;;;;;5090099;28;21024;-67
2024/03/29 12:08:53;;;;;;;2.43;2.23;;;;;;;;;;5089503;28;20525;-67
2024/03/29 12:11:20;;;;;;;2.60;2.20;;;;;;;;;;5089623;28;20489;-66
2024/03/29 12:13:47;;;;;;;2.90;2.60;;;;;;;;;;5090029;28;20442;-66
2024/03/29 12:16:15;;;;;;;2.67;2.47;;;;;;;;;;5089787;28;20805;-67
2024/03/29 12:18:42;;;;;;;3.00;2.80;;;;;;;;;;5089937;28;20474;-67
2024/03/29 12:21:13;;;;;;;4.90;3.33;;;;;;;;;;5089251;28;20466;-66
2024/03/29 12:23:40;;;;;;;5.10;3.87;;;;;;;;;;5089584;28;20469;-67
2024/03/29 12:26:08;;;;;;;3.40;3.20;;;;;;;;;;5089509;28;20463;-66
2024/03/29 12:28:36;;;;;;;3.67;3.37;;;;;;;;;;5080223;28;20444;-67
2024/03/29 12:31:04;;;;;;;3.50;3.27;;;;;;;;;;5082948;28;20491;-66
2024/03/29 12:33:31;;;;;;;3.00;2.80;;;;;;;;;;5080329;28;20526;-67
2024/03/29 12:35:59;;;;;;;3.63;3.43;;;;;;;;;;5087142;28;20541;-67
2024/03/29 12:38:28;;;;;;;3.00;2.80;;;;;;;;;;5089874;28;21000;-67
2024/03/29 12:40:55;;;;;;;3.73;3.43;;;;;;;;;;5089868;28;20511;-67
2024/03/29 12:43:24;;;;;;;3.00;2.80;;;;;;;;;;5089810;28;20466;-67
2024/03/29 12:45:53;;;;;;;2.60;2.40;;;;;;;;;;5089599;28;20463;-66
2024/03/29 12:48:20;;;;;;;4.13;2.93;;;;;;;;;;5089548;28;21038;-66
2024/03/29 12:50:49;;;;;;;2.13;1.93;;;;;;;;;;5089626;28;20801;-67
2024/03/29 12:53:16;;;;;;;3.63;2.77;;;;;;;;;;5081607;28;20577;-66
2024/03/29 12:55:46;;;;;;;2.97;2.70;;;;;;;;;;5077333;28;20544;-67
2024/03/29 12:58:13;;;;;;;2.30;2.10;;;;;;;;;;5080406;28;20455;-67
2024/03/29 13:00:40;;;;;;;2.60;2.40;;;;;;;;;;5087451;28;20504;-67
2024/03/29 13:03:08;;;;;;;2.10;2.00;;;;;;;;;;5075967;28;20523;-67
2024/03/29 13:05:40;;;;;;;3.70;3.40;;;;;;;;;;5087912;28;20474;-66
2024/03/29 13:08:09;;;;;;;3.13;2.93;;;;;;;;;;5082387;28;20442;-66
2024/03/29 13:10:36;;;;;;;3.17;2.93;;;;;;;;;;5081436;28;20442;-66
2024/03/29 13:13:05;;;;;;;4.93;3.73;;;;;;;;;;5089163;28;20574;-66
2024/03/29 13:15:34;;;;;;;4.63;4.23;;;;;;;;;;5089181;28;20482;-66
2024/03/29 13:18:01;;;;;;;5.13;4.70;;;;;;;;;;5089801;28;20521;-67
2024/03/29 13:20:28;;;;;;;4.40;3.93;;;;;;;;;;5092688;28;20929;-66
2024/03/29 13:22:57;;;;;;;4.17;3.87;;;;;;;;;;5093011;28;20440;-66
2024/03/29 13:25:24;;;;;;;4.63;3.90;;;;;;;;;;5093184;28;20475;-66
2024/03/29 13:27:53;;;;;;;5.20;4.73;;;;;;;;;;5092987;28;20819;-67
2024/03/29 13:30:22;;;;;;;4.53;4.10;;;;;;;;;;5093397;28;20447;-66
2024/03/29 13:32:49;;;;;;;4.13;3.80;;;;;;;;;;5092767;28;20494;-67
2024/03/29 13:35:18;;;;;;;4.10;3.70;;;;;;;;;;5093019;28;20459;-67
2024/03/29 13:37:46;;;;;;;4.87;4.37;;;;;;;;;;5093050;28;20470;-66
2024/03/29 13:40:13;;;;;;;4.40;4.10;;;;;;;;;;5092618;28;20953;-67
2024/03/29 13:42:40;;;;;;;4.77;4.40;;;;;;;;;;5092490;28;20526;-66
2024/03/29 13:45:10;;;;;;;4.60;4.30;;;;;;;;;;5092707;28;20468;-67
2024/03/29 13:47:38;;;;;;;4.90;4.40;;;;;;;;;;5093017;28;20466;-67
2024/03/29 13:50:06;;;;;;;4.70;4.20;;;;;;;;;;5092794;28;20526;-67
2024/03/29 13:52:33;;;;;;;6.60;4.93;;;;;;;;;;5092540;28;20487;-67
2024/03/29 13:55:00;;;;;;;5.10;4.70;;;;;;;;;;5088264;28;21160;-67
2024/03/29 13:57:28;;;;;;;4.37;4.03;;;;;;;;;;5093921;28;20451;-67
2024/03/29 13:59:55;;;;;;;5.20;4.23;;;;;;;;;;5084085;28;20471;-67
2024/03/29 14:02:22;;;;;;;3.27;3.07;;;;;;;;;;5092497;28;20531;-67
2024/03/29 14:04:51;;;;;;;3.67;3.40;;;;;;;;;;5092225;28;20518;-68
2024/03/29 14:07:18;;;;;;;3.73;3.30;;;;;;;;;;5092340;28;20526;-67
2024/03/29 14:09:46;;;;;;;3.00;2.80;;;;;;;;;;5092256;28;20460;-67
2024/03/29 14:12:13;;;;;;;2.60;2.40;;;;;;;;;;5092262;28;20493;-67
2024/03/29 14:14:41;;;;;;;3.30;3.10;;;;;;;;;;5091897;28;20897;-67
2024/03/29 14:17:08;;;;;;;2.87;2.57;;;;;;;;;;5092009;28;20448;-67
2024/03/29 14:19:36;;;;;;;4.17;3.87;;;;;;;;;;5092724;28;20526;-67
2024/03/29 14:22:05;;;;;;;3.53;3.23;;;;;;;;;;5103419;28;20943;-67
2024/03/29 14:24:35;;;;;;;3.77;3.27;;;;;;;;;;5087652;28;21039;-67
2024/03/29 14:27:03;;;;;;;4.67;3.80;;;;;;;;;;5088688;28;20450;-67
2024/03/29 14:29:30;;;;;;;3.80;3.50;;;;;;;;;;5091417;28;20437;-67
2024/03/29 14:31:57;;;;;;;4.30;4.00;;;;;;;;;;5090883;28;20450;-67
2024/03/29 14:34:24;;;;;;;4.43;4.03;;;;;;;;;;5091636;28;20463;-67
2024/03/29 14:36:52;;;;;;;3.60;3.37;;;;;;;;;;5090313;28;20457;-67
2024/03/29 14:39:21;;;;;;;3.70;3.40;;;;;;;;;;5091909;28;20442;-67
2024/03/29 14:41:50;;;;;;;5.13;4.30;;;;;;;;;;5091077;28;20451;-67
2024/03/29 14:44:17;;;;;;;4.43;4.03;;;;;;;;;;5097143;28;20543;-66
2024/03/29 14:46:44;;;;;;;4.13;3.80;;;;;;;;;;5090266;28;20800;-67
2024/03/29 14:49:13;;;;;;;3.53;3.33;;;;;;;;;;5091433;28;20478;-67
2024/03/29 14:51:40;;;;;;;3.90;3.50;;;;;;;;;;5091410;28;20467;-67
2024/03/29 14:54:08;;;;;;;3.47;3.20;;;;;;;;;;5091286;28;20488;-67
2024/03/29 14:56:36;;;;;;;6.13;3.67;;;;;;;;;;5091518;28;20528;-67
2024/03/29 14:59:04;;;;;;;5.07;4.57;;;;;;;;;;5090685;28;20523;-66
2024/03/29 15:01:31;;;;;;;6.43;4.77;;;;;;;;;;5088689;28;20545;-67
2024/03/29 15:03:58;;;;;;;5.80;5.27;;;;;;;;;;5088583;28;20556;-67
2024/03/29 15:06:25;;;;;;;4.63;4.03;;;;;;;;;;5091675;28;20444;-67
2024/03/29 15:08:54;;;;;;;3.43;3.23;;;;;;;;;;5095245;28;20826;-67
2024/03/29 15:11:22;;;;;;;3.90;3.60;;;;;;;;;;5092849;28;20449;-67
2024/03/29 15:13:51;;;;;;;3.67;3.43;;;;;;;;;;5090344;28;20485;-67
2024/03/29 15:16:18;;;;;;;2.87;2.67;;;;;;;;;;5092688;28;20447;-67
2024/03/29 15:18:45;;;;;;;3.00;2.70;;;;;;;;;;5088584;28;20876;-67
2024/03/29 15:21:12;;;;;;;3.10;2.90;;;;;;;;;;5090672;28;20438;-67
2024/03/29 15:23:40;;;;;;;3.17;3.00;;;;;;;;;;5102249;28;20445;-67
2024/03/29 15:26:08;;;;;;;3.10;2.90;;;;;;;;;;5099737;28;20842;-67
2024/03/29 15:31:22;;;;;;;4.70;2.67;;;;;;;;;;5087127;28;20514;-67
2024/03/29 15:33:50;;;;;;;2.87;2.67;;;;;;;;;;5104470;28;20564;-67
2024/03/29 15:36:17;;;;;;;2.93;2.73;;;;;;;;;;5097293;28;20444;-67
2024/03/29 15:38:44;;;;;;;3.23;2.40;;;;;;;;;;5095178;28;20441;-67
2024/03/29 15:41:11;;;;;;;3.40;3.20;;;;;;;;;;5097520;28;20469;-68
2024/03/29 15:43:40;;;;;;;2.97;2.77;;;;;;;;;;5095345;28;20459;-67
2024/03/29 15:46:07;;;;;;;3.23;2.80;;;;;;;;;;5092463;28;20470;-68
2024/03/29 15:48:36;;;;;;;3.10;2.90;;;;;;;;;;5093782;28;20448;-67
2024/03/29 15:51:03;;;;;;;2.80;2.60;;;;;;;;;;5102253;28;20448;-68
2024/03/29 15:53:30;;;;;;;3.03;2.83;;;;;;;;;;5092249;28;20604;-66
2024/03/29 15:55:58;;;;;;;4.07;3.70;;;;;;;;;;5092933;28;20541;-68
2024/03/29 15:58:25;;;;;;;2.87;2.67;;;;;;;;;;5093340;28;20447;-67
2024/03/29 16:00:52;;;;;;;3.07;2.73;;;;;;;;;;5103761;28;20816;-68
2024/03/29 16:03:19;;;;;;;3.93;3.63;;;;;;;;;;5095838;28;20498;-67
2024/03/29 16:05:48;;;;;;;3.93;3.63;;;;;;;;;;5090627;28;20543;-68
2024/03/29 16:08:16;;;;;;;4.03;3.60;;;;;;;;;;5100908;28;20440;-68
2024/03/29 16:10:51;;;;;;;3.40;3.20;;;;;;;;;;5100862;28;20961;-68
2024/03/29 16:13:18;;;;;;;3.30;3.10;;;;;;;;;;5079320;28;20480;-67
2024/03/29 16:15:45;;;;;;;3.10;2.90;;;;;;;;;;5089756;28;20495;-68
2024/03/29 16:18:12;;;;;;;3.57;3.27;;;;;;;;;;5098249;28;20516;-68
2024/03/29 16:20:38;;;;;;;4.00;3.30;;;;;;;;;;5093802;28;20450;-68
2024/03/29 16:23:07;;;;;;;3.20;3.00;;;;;;;;;;5095262;28;20445;-68
2024/03/29 16:25:33;;;;;;;4.63;4.23;;;;;;;;;;5103155;28;20477;-67
2024/03/29 16:28:01;;;;;;;4.20;3.77;;;;;;;;;;5096066;28;20483;-68
2024/03/29 16:30:27;;;;;;;3.00;2.80;;;;;;;;;;5093579;28;20503;-68
2024/03/29 16:32:54;;;;;;;3.93;3.60;;;;;;;;;;5103740;28;20573;-68
2024/03/29 16:35:20;;;;;;;3.80;3.50;;;;;;;;;;5091650;28;20852;-68
2024/03/29 16:37:47;;;;;;;3.40;3.10;;;;;;;;;;5094117;28;20456;-68
2024/03/29 16:40:15;;;;;;;3.57;3.30;;;;;;;;;;5090192;28;21115;-67